Costa Atlantica — IBLQ — position and weather

sailwx.info

Track history (hours):
 
Tides and Currents Weather Stations Pressure Air Temp Water Temp Dewpoint Dewpoint Depression Visibility Wind Speed Wind Dir Waves Ship Positions

Costa Atlantica (Italy)

Last reported at 2019-Oct-11 04:49 UTC. Time now 2019-Oct-17 17:50 UTC.
Position N 31°41' E 126°20'.

Length 292 m; draft 8 m.

Type: Ship. MMSI: 247595017.

Date/timePositionNaut miles runAvg speedWind from/ knotsBaromVisibWave heightAir tempDewpointWater temp
2019-Oct-11 04:49N 31°41' E 126°20'2619.7
2019-Oct-11 03:31N 31°23' E 125°59'  
2019-Oct-08 14:25N 22°13' E 113°49'715.8
2019-Oct-08 13:58N 22°20' E 113°49'714.2
2019-Oct-08 13:28N 22°26' E 113°52'3 1.7
2019-Oct-08 11:41N 22°28' E 113°54'0 0.0
2019-Oct-08 05:29N 22°28' E 113°54'12 8.6
2019-Oct-08 04:08N 22°18' E 113°48'215.2
2019-Oct-08 04:00N 22°16' E 113°49'815.8
2019-Oct-08 03:30N 22°09' E 113°51'510.9
2019-Oct-08 03:00N 22°03' E 113°51'915.6
2019-Oct-08 02:26N 21°55' E 113°52'816.2
2019-Oct-08 01:59N 21°47' E 113°54'45718.6
2019-Oct-07 01:21N 25°21' E 121°15'718.6
2019-Oct-07 01:00N 25°23' E 121°22'918.2
2019-Oct-07 00:30N 25°24' E 121°32'918.7
2019-Oct-07 00:00N 25°24' E 121°42'1018.8
2019-Oct-06 23:29N 25°22' E 121°53'1019.4
2019-Oct-06 22:58N 25°20' E 122°04'1020.0
2019-Oct-06 22:29N 25°18' E 122°14'1019.5
2019-Oct-06 21:59N 25°18' E 122°25'1019.2
2019-Oct-06 21:27N 25°20' E 122°36'  
2019-Oct-04 11:47N 25°20' E 122°02'618.8
2019-Oct-04 11:29N 25°21' E 121°56'919.0
2019-Oct-04 10:59N 25°23' E 121°46'918.4
2019-Oct-04 10:29N 25°22' E 121°36'919.1
2019-Oct-04 09:59N 25°21' E 121°25'918.9
2019-Oct-04 09:30N 25°19' E 121°15'918.9
2019-Oct-04 09:00N 25°16' E 121°05'1018.1
2019-Oct-04 08:28N 25°13' E 120°55'43218.5
2019-Oct-03 09:06N 22°05' E 113°51'713.7
2019-Oct-03 08:35N 22°12' E 113°49'217.2
2019-Oct-03 08:29N 22°14' E 113°49'714.4
2019-Oct-03 08:00N 22°21' E 113°49'714.4
2019-Oct-03 07:30N 22°27' E 113°53'10 1.2
2019-Oct-02 22:49N 22°18' E 113°48'414.8
2019-Oct-02 22:31N 22°13' E 113°49'811.8
2019-Oct-02 21:52N 22°06' E 113°51'410.6
2019-Oct-02 21:29N 22°02' E 113°51'911.8
2019-Oct-02 20:44N 21°53' E 113°52'2911.6
2019-Oct-02 18:13N 21°28' E 114°08'412.3
2019-Oct-02 17:53N 21°25' E 114°11'  
Track history (hours):
 
Tides and Currents Weather Stations Pressure Air Temp Water Temp Dewpoint Dewpoint Depression Visibility Wind Speed Wind Dir Waves Ship Positions

Costa Atlantica (Italy)

Last reported at 2019-Oct-11 04:49 UTC. Time now 2019-Oct-17 17:50 UTC.
Position N 31°41' E 126°20'.

Length 292 m; draft 8 m.

Type: Ship. MMSI: 247595017.

Date/timePositionNaut miles runAvg speedWind from/ knotsBaromVisibWave heightAir tempDewpointWater temp
2019-Oct-11 04:49N 31°41' E 126°20'2619.7
2019-Oct-11 03:31N 31°23' E 125°59'  
2019-Oct-08 14:25N 22°13' E 113°49'715.8
2019-Oct-08 13:58N 22°20' E 113°49'714.2
2019-Oct-08 13:28N 22°26' E 113°52'3 1.7
2019-Oct-08 11:41N 22°28' E 113°54'0 0.0
2019-Oct-08 05:29N 22°28' E 113°54'12 8.6
2019-Oct-08 04:08N 22°18' E 113°48'215.2
2019-Oct-08 04:00N 22°16' E 113°49'815.8
2019-Oct-08 03:30N 22°09' E 113°51'510.9
2019-Oct-08 03:00N 22°03' E 113°51'915.6
2019-Oct-08 02:26N 21°55' E 113°52'816.2
2019-Oct-08 01:59N 21°47' E 113°54'45718.6
2019-Oct-07 01:21N 25°21' E 121°15'718.6
2019-Oct-07 01:00N 25°23' E 121°22'918.2
2019-Oct-07 00:30N 25°24' E 121°32'918.7
2019-Oct-07 00:00N 25°24' E 121°42'1018.8
2019-Oct-06 23:29N 25°22' E 121°53'1019.4
2019-Oct-06 22:58N 25°20' E 122°04'1020.0
2019-Oct-06 22:29N 25°18' E 122°14'1019.5
2019-Oct-06 21:59N 25°18' E 122°25'1019.2
2019-Oct-06 21:27N 25°20' E 122°36'  
2019-Oct-04 11:47N 25°20' E 122°02'618.8
2019-Oct-04 11:29N 25°21' E 121°56'919.0
2019-Oct-04 10:59N 25°23' E 121°46'918.4
2019-Oct-04 10:29N 25°22' E 121°36'919.1
2019-Oct-04 09:59N 25°21' E 121°25'918.9
2019-Oct-04 09:30N 25°19' E 121°15'918.9
2019-Oct-04 09:00N 25°16' E 121°05'1018.1
2019-Oct-04 08:28N 25°13' E 120°55'43218.5
2019-Oct-03 09:06N 22°05' E 113°51'713.7
2019-Oct-03 08:35N 22°12' E 113°49'217.2
2019-Oct-03 08:29N 22°14' E 113°49'714.4
2019-Oct-03 08:00N 22°21' E 113°49'714.4
2019-Oct-03 07:30N 22°27' E 113°53'10 1.2
2019-Oct-02 22:49N 22°18' E 113°48'414.8
2019-Oct-02 22:31N 22°13' E 113°49'811.8
2019-Oct-02 21:52N 22°06' E 113°51'410.6
2019-Oct-02 21:29N 22°02' E 113°51'911.8
2019-Oct-02 20:44N 21°53' E 113°52'2911.6
2019-Oct-02 18:13N 21°28' E 114°08'412.3
2019-Oct-02 17:53N 21°25' E 114°11'  

Dump ship's entire track history